Coastal Inspiration — CFN4970 — position and weather

sailwx.info

Track history (hours):
 
Tides and Currents Weather Stations Pressure Air Temp Water Temp Dewpoint Dewpoint Depression Visibility Wind Speed Wind Dir Waves Ship Positions

Coastal Inspiration

Last reported at 2016-Jul-25 17:34 UTC. Time now 2016-Jul-25 17:51 UTC.
Position N 49°13' W 123°49'.

Length 160 m; draft 6 m.

Type: Ship. MMSI: 316011408.

Date/timePositionNaut miles runAvg speedWind from/ knotsBaromVisibWave heightAir tempDewpointWater temp
2016-Jul-25 17:34N 49°13' W 123°49'3 3.3
2016-Jul-25 16:33N 49°11' W 123°53'1817.9
2016-Jul-25 15:33N 49°07' W 123°27'1413.9
2016-Jul-25 14:33N 49°00' W 123°08'1212.0
2016-Jul-25 13:33N 49°04' W 123°25'1818.2
2016-Jul-25 12:34N 49°13' W 123°49'4 0.7
2016-Jul-25 07:33N 49°11' W 123°53'1818.3
2016-Jul-25 06:33N 49°06' W 123°27'1413.6
2016-Jul-25 05:33N 49°00' W 123°08'1010.1
2016-Jul-25 04:33N 49°03' W 123°23'2019.8
2016-Jul-25 03:33N 49°13' W 123°49'4 3.5
2016-Jul-25 02:30N 49°11' W 123°53'1819.4
2016-Jul-25 01:33N 49°06' W 123°26'1313.5
2016-Jul-25 00:33N 49°00' W 123°08'1413.8
2016-Jul-24 23:33N 49°05' W 123°28'1716.9
2016-Jul-24 22:31N 49°10' W 123°53'2 2.0
2016-Jul-24 21:34N 49°12' W 123°53'1818.3
2016-Jul-24 20:33N 49°06' W 123°26'1313.4
2016-Jul-24 19:33N 49°00' W 123°08'1010.4
2016-Jul-24 18:33N 49°03' W 123°23'2020.0
2016-Jul-24 17:33N 49°13' W 123°49'3 2.8
2016-Jul-24 16:34N 49°12' W 123°53'1817.7
2016-Jul-24 15:33N 49°06' W 123°27'1413.9
2016-Jul-24 14:33N 49°00' W 123°08'1211.6
2016-Jul-24 13:33N 49°04' W 123°25'1818.3
2016-Jul-24 12:33N 49°13' W 123°49'3 0.7
2016-Jul-24 07:32N 49°11' W 123°53'1818.0
2016-Jul-24 06:33N 49°06' W 123°27'1414.1
2016-Jul-24 05:33N 49°00' W 123°08'1111.3
2016-Jul-24 04:34N 49°03' W 123°25'1918.8
2016-Jul-24 03:34N 49°13' W 123°49'2 1.5
2016-Jul-24 02:33N 49°13' W 123°52'1919.4
2016-Jul-24 01:33N 49°07' W 123°24'1212.1
2016-Jul-24 00:33N 49°00' W 123°08'1312.6
2016-Jul-23 23:33N 49°04' W 123°26'1919.1
2016-Jul-23 22:33N 49°12' W 123°53'2 2.3
2016-Jul-23 21:33N 49°13' W 123°50'2019.8
2016-Jul-23 20:33N 49°05' W 123°23'1110.8
2016-Jul-23 19:33N 49°00' W 123°08'1312.5
2016-Jul-23 18:33N 49°05' W 123°26'1919.2
2016-Jul-23 17:33N 49°12' W 123°53'1 1.3
2016-Jul-23 16:33N 49°13' W 123°52'1919.5
2016-Jul-23 15:33N 49°06' W 123°24'1211.8
2016-Jul-23 14:33N 49°00' W 123°08'1111.4
2016-Jul-23 13:33N 49°04' W 123°25'1918.8
2016-Jul-23 12:33N 49°13' W 123°49'3 0.6
2016-Jul-23 07:33N 49°11' W 123°53'1818.0
2016-Jul-23 06:33N 49°06' W 123°27'3 1.4
2016-Jul-23 04:33N 49°04' W 123°25'2019.8
2016-Jul-23 03:34N 49°12' W 123°52'1 0.6
2016-Jul-23 02:33N 49°13' W 123°51'2020.4
2016-Jul-23 01:33N 49°05' W 123°23'1110.8
2016-Jul-23 00:33N 49°00' W 123°08'1212.2
2016-Jul-22 23:33N 49°04' W 123°26'2019.6
2016-Jul-22 22:33N 49°12' W 123°53'0 0.4
2016-Jul-22 21:33N 49°12' W 123°53'2019.6
2016-Jul-22 20:33N 49°05' W 123°24'1211.9
2016-Jul-22 19:33N 49°00' W 123°08'1313.0
2016-Jul-22 18:34N 49°05' W 123°27'1918.7
2016-Jul-22 17:33N 49°12' W 123°53'2 2.1
2016-Jul-22 16:33N 49°13' W 123°51'2019.9
2016-Jul-22 15:33N 49°05' W 123°22'1110.6
2016-Jul-22 14:33N 49°00' W 123°08'1312.8
2016-Jul-22 13:33N 49°04' W 123°26'1817.8
2016-Jul-22 12:33N 49°13' W 123°50'3 0.6
2016-Jul-22 07:33N 49°12' W 123°53'3215.9
2016-Jul-22 05:33N 49°00' W 123°08'1111.4
2016-Jul-22 04:33N 49°04' W 123°25'1918.8
2016-Jul-22 03:33N 49°13' W 123°50'2 1.9
2016-Jul-22 02:33N 49°12' W 123°53'1919.3
2016-Jul-22 01:33N 49°06' W 123°25'1212.4
2016-Jul-22 00:33N 49°00' W 123°08'1312.8
2016-Jul-21 23:34N 49°04' W 123°26'1918.1
2016-Jul-21 22:32N 49°11' W 123°53'1 1.3
2016-Jul-21 21:33N 49°12' W 123°53'2020.3
2016-Jul-21 20:33N 49°05' W 123°23'1111.1
2016-Jul-21 19:33N 49°00' W 123°08'1312.3
2016-Jul-21 18:32N 49°04' W 123°26'1918.6
2016-Jul-21 17:30N 49°12' W 123°53'1 0.8
2016-Jul-21 16:33N 49°12' W 123°52'2119.8
2016-Jul-21 15:28N 49°05' W 123°22'10 8.1
2016-Jul-21 14:14N 49°00' W 123°08'1717.2
2016-Jul-21 13:15N 49°07' W 123°32'1418.2
2016-Jul-21 12:28N 49°13' W 123°51'1 0.2
2016-Jul-21 07:31N 49°13' W 123°50'2020.1
2016-Jul-21 06:32N 49°06' W 123°22'5 2.2
2016-Jul-21 04:27N 49°06' W 123°29'1718.8
2016-Jul-21 03:33N 49°11' W 123°53'3 2.8
2016-Jul-21 02:33N 49°13' W 123°50'2120.6
2016-Jul-21 01:33N 49°04' W 123°21'9 9.4
2016-Jul-21 00:33N 49°00' W 123°08'1212.3
2016-Jul-20 23:33N 49°04' W 123°26'1919.3
2016-Jul-20 22:33N 49°12' W 123°53'1 0.7
2016-Jul-20 21:33N 49°12' W 123°53'2019.5
2016-Jul-20 20:33N 49°05' W 123°25'1212.3
2016-Jul-20 19:33N 49°00' W 123°08'1313.0
2016-Jul-20 18:33N 49°04' W 123°27'1918.9
2016-Jul-20 17:33N 49°12' W 123°53'0 0.3
2016-Jul-20 16:33N 49°12' W 123°53'1919.4
2016-Jul-20 15:33N 49°06' W 123°25'1212.2
2016-Jul-20 14:33N 49°00' W 123°08'1111.3
2016-Jul-20 13:33N 49°03' W 123°24'1918.6
2016-Jul-20 12:33N 49°13' W 123°49'4 0.7
2016-Jul-20 07:33N 49°11' W 123°53'1818.1
2016-Jul-20 06:34N 49°06' W 123°27'1413.8
2016-Jul-20 05:34N 49°00' W 123°08'1313.0
2016-Jul-20 04:33N 49°05' W 123°27'1918.5
2016-Jul-20 03:33N 49°11' W 123°53'3 2.6
2016-Jul-20 02:33N 49°13' W 123°50'1919.2
2016-Jul-20 01:34N 49°06' W 123°23'1111.3
2016-Jul-20 00:33N 49°00' W 123°08'1212.2
2016-Jul-19 23:33N 49°04' W 123°26'1919.0
2016-Jul-19 22:33N 49°12' W 123°52'1 1.4
2016-Jul-19 21:33N 49°12' W 123°53'2019.7
2016-Jul-19 20:33N 49°05' W 123°25'1211.5
2016-Jul-19 19:31N 49°00' W 123°08'1313.5
2016-Jul-19 18:33N 49°04' W 123°27'1918.6
2016-Jul-19 17:33N 49°12' W 123°52'0 0.3
2016-Jul-19 16:33N 49°13' W 123°52'1818.4
2016-Jul-19 15:33N 49°06' W 123°26'1312.7
2016-Jul-19 14:33N 49°00' W 123°08'1111.4
2016-Jul-19 13:33N 49°04' W 123°24'1918.7
2016-Jul-19 12:34N 49°13' W 123°49'4 0.8
2016-Jul-19 07:27N 49°10' W 123°53'22 7.7
2016-Jul-19 04:33N 49°02' W 123°22'2020.3
2016-Jul-19 03:33N 49°13' W 123°48'4 3.7
2016-Jul-19 02:33N 49°12' W 123°53'1918.9
2016-Jul-19 01:33N 49°07' W 123°25'1313.2
2016-Jul-19 00:33N 49°00' W 123°08'1111.2
2016-Jul-18 23:33N 49°03' W 123°24'2019.6
2016-Jul-18 22:33N 49°13' W 123°51'2 2.0
2016-Jul-18 21:33N 49°12' W 123°53'1919.2
2016-Jul-18 20:33N 49°06' W 123°25'1312.8
2016-Jul-18 19:34N 49°00' W 123°08'1111.0
2016-Jul-18 18:33N 49°03' W 123°24'2019.9
2016-Jul-18 17:33N 49°13' W 123°51'2 2.0
2016-Jul-18 16:34N 49°12' W 123°53'1818.4
2016-Jul-18 15:34N 49°06' W 123°26'1313.4
2016-Jul-18 14:34N 49°00' W 123°08'1111.5
2016-Jul-18 13:33N 49°03' W 123°25'1919.1
2016-Jul-18 12:33N 49°13' W 123°50'4 0.8
2016-Jul-18 08:07N 49°10' W 123°53'0 0.7
2016-Jul-18 07:33N 49°10' W 123°53'1716.7
2016-Jul-18 06:33N 49°07' W 123°28'1515.0
2016-Jul-18 05:33N 49°00' W 123°08'1211.7
2016-Jul-18 04:34N 49°04' W 123°25'2019.6
2016-Jul-18 03:33N 49°12' W 123°52'0 0.5
2016-Jul-18 02:33N 49°12' W 123°53'1919.4
2016-Jul-18 01:34N 49°06' W 123°25'1312.5
2016-Jul-18 00:34N 49°00' W 123°08'1212.1
2016-Jul-17 23:33N 49°04' W 123°26'1919.4
2016-Jul-17 22:33N 49°12' W 123°52'1 0.8
2016-Jul-17 21:33N 49°12' W 123°53'1919.4
2016-Jul-17 20:33N 49°06' W 123°25'1212.5
2016-Jul-17 19:33N 49°00' W 123°08'1110.8
2016-Jul-17 18:33N 49°03' W 123°24'2019.5
2016-Jul-17 17:33N 49°13' W 123°50'3 3.1
2016-Jul-17 16:32N 49°11' W 123°53'1817.6
2016-Jul-17 15:31N 49°07' W 123°27'1414.3
2016-Jul-17 14:33N 49°00' W 123°08'1110.7
2016-Jul-17 13:33N 49°03' W 123°24'1919.3
2016-Jul-17 12:33N 49°13' W 123°49'4 0.7
2016-Jul-17 07:29N 49°11' W 123°53'1718.1
2016-Jul-17 06:33N 49°07' W 123°29'5 2.7
2016-Jul-17 04:33N 49°03' W 123°23'1919.4
2016-Jul-17 03:33N 49°13' W 123°48'2 2.4
2016-Jul-17 02:33N 49°13' W 123°52'2019.8
2016-Jul-17 01:33N 49°05' W 123°23'1111.3
2016-Jul-17 00:33N 49°00' W 123°08'1413.6
2016-Jul-16 23:33N 49°05' W 123°27'1817.9
2016-Jul-16 22:33N 49°11' W 123°53'3 3.5
2016-Jul-16 21:33N 49°13' W 123°49'2020.2
2016-Jul-16 20:33N 49°04' W 123°21'9 9.5
2016-Jul-16 19:33N 49°00' W 123°08'1313.4
2016-Jul-16 18:33N 49°05' W 123°27'1818.1
2016-Jul-16 17:33N 49°11' W 123°53'3 2.9
2016-Jul-16 16:33N 49°13' W 123°50'1919.2
2016-Jul-16 15:33N 49°05' W 123°23'1111.3
2016-Jul-16 14:34N 49°00' W 123°08'1111.1
2016-Jul-16 13:33N 49°03' W 123°24'1919.2
2016-Jul-16 12:33N 49°13' W 123°50'4 3.9
2016-Jul-16 11:28N 49°10' W 123°53'0 0.0
2016-Jul-16 10:25N 49°10' W 123°53'0 0.0
2016-Jul-16 09:33N 49°10' W 123°53'0 0.0
2016-Jul-16 08:33N 49°10' W 123°53'5 5.3
2016-Jul-16 07:33N 49°13' W 123°47'2020.2
2016-Jul-16 06:34N 49°03' W 123°20'10 5.1
2016-Jul-16 04:33N 49°08' W 123°34'1312.9
2016-Jul-16 03:33N 49°10' W 123°53'7 7.3
2016-Jul-16 02:33N 49°12' W 123°43'2019.6
2016-Jul-16 01:33N 49°02' W 123°18'6 6.5
2016-Jul-16 00:34N 49°00' W 123°08'1717.1
2016-Jul-15 23:33N 49°07' W 123°32'1414.2
2016-Jul-15 22:33N 49°10' W 123°53'5 4.9
2016-Jul-15 21:33N 49°13' W 123°48'2020.1
2016-Jul-15 20:33N 49°04' W 123°21'9 9.1
2016-Jul-15 19:33N 49°00' W 123°08'1514.6
2016-Jul-15 18:33N 49°06' W 123°29'  
Track history (hours):
 
Tides and Currents Weather Stations Pressure Air Temp Water Temp Dewpoint Dewpoint Depression Visibility Wind Speed Wind Dir Waves Ship Positions

Coastal Inspiration

Last reported at 2016-Jul-25 17:34 UTC. Time now 2016-Jul-25 17:51 UTC.
Position N 49°13' W 123°49'.

Length 160 m; draft 6 m.

Type: Ship. MMSI: 316011408.

Date/timePositionNaut miles runAvg speedWind from/ knotsBaromVisibWave heightAir tempDewpointWater temp
2016-Jul-25 17:34N 49°13' W 123°49'3 3.3
2016-Jul-25 16:33N 49°11' W 123°53'1817.9
2016-Jul-25 15:33N 49°07' W 123°27'1413.9
2016-Jul-25 14:33N 49°00' W 123°08'1212.0
2016-Jul-25 13:33N 49°04' W 123°25'1818.2
2016-Jul-25 12:34N 49°13' W 123°49'4 0.7
2016-Jul-25 07:33N 49°11' W 123°53'1818.3
2016-Jul-25 06:33N 49°06' W 123°27'1413.6
2016-Jul-25 05:33N 49°00' W 123°08'1010.1
2016-Jul-25 04:33N 49°03' W 123°23'2019.8
2016-Jul-25 03:33N 49°13' W 123°49'4 3.5
2016-Jul-25 02:30N 49°11' W 123°53'1819.4
2016-Jul-25 01:33N 49°06' W 123°26'1313.5
2016-Jul-25 00:33N 49°00' W 123°08'1413.8
2016-Jul-24 23:33N 49°05' W 123°28'1716.9
2016-Jul-24 22:31N 49°10' W 123°53'2 2.0
2016-Jul-24 21:34N 49°12' W 123°53'1818.3
2016-Jul-24 20:33N 49°06' W 123°26'1313.4
2016-Jul-24 19:33N 49°00' W 123°08'1010.4
2016-Jul-24 18:33N 49°03' W 123°23'2020.0
2016-Jul-24 17:33N 49°13' W 123°49'3 2.8
2016-Jul-24 16:34N 49°12' W 123°53'1817.7
2016-Jul-24 15:33N 49°06' W 123°27'1413.9
2016-Jul-24 14:33N 49°00' W 123°08'1211.6
2016-Jul-24 13:33N 49°04' W 123°25'1818.3
2016-Jul-24 12:33N 49°13' W 123°49'3 0.7
2016-Jul-24 07:32N 49°11' W 123°53'1818.0
2016-Jul-24 06:33N 49°06' W 123°27'1414.1
2016-Jul-24 05:33N 49°00' W 123°08'1111.3
2016-Jul-24 04:34N 49°03' W 123°25'1918.8
2016-Jul-24 03:34N 49°13' W 123°49'2 1.5
2016-Jul-24 02:33N 49°13' W 123°52'1919.4
2016-Jul-24 01:33N 49°07' W 123°24'1212.1
2016-Jul-24 00:33N 49°00' W 123°08'1312.6
2016-Jul-23 23:33N 49°04' W 123°26'1919.1
2016-Jul-23 22:33N 49°12' W 123°53'2 2.3
2016-Jul-23 21:33N 49°13' W 123°50'2019.8
2016-Jul-23 20:33N 49°05' W 123°23'1110.8
2016-Jul-23 19:33N 49°00' W 123°08'1312.5
2016-Jul-23 18:33N 49°05' W 123°26'1919.2
2016-Jul-23 17:33N 49°12' W 123°53'1 1.3
2016-Jul-23 16:33N 49°13' W 123°52'1919.5
2016-Jul-23 15:33N 49°06' W 123°24'1211.8
2016-Jul-23 14:33N 49°00' W 123°08'1111.4
2016-Jul-23 13:33N 49°04' W 123°25'1918.8
2016-Jul-23 12:33N 49°13' W 123°49'3 0.6
2016-Jul-23 07:33N 49°11' W 123°53'1818.0
2016-Jul-23 06:33N 49°06' W 123°27'3 1.4
2016-Jul-23 04:33N 49°04' W 123°25'2019.8
2016-Jul-23 03:34N 49°12' W 123°52'1 0.6
2016-Jul-23 02:33N 49°13' W 123°51'2020.4
2016-Jul-23 01:33N 49°05' W 123°23'1110.8
2016-Jul-23 00:33N 49°00' W 123°08'1212.2
2016-Jul-22 23:33N 49°04' W 123°26'2019.6
2016-Jul-22 22:33N 49°12' W 123°53'0 0.4
2016-Jul-22 21:33N 49°12' W 123°53'2019.6
2016-Jul-22 20:33N 49°05' W 123°24'1211.9
2016-Jul-22 19:33N 49°00' W 123°08'1313.0
2016-Jul-22 18:34N 49°05' W 123°27'1918.7
2016-Jul-22 17:33N 49°12' W 123°53'2 2.1
2016-Jul-22 16:33N 49°13' W 123°51'2019.9
2016-Jul-22 15:33N 49°05' W 123°22'1110.6
2016-Jul-22 14:33N 49°00' W 123°08'1312.8
2016-Jul-22 13:33N 49°04' W 123°26'1817.8
2016-Jul-22 12:33N 49°13' W 123°50'3 0.6
2016-Jul-22 07:33N 49°12' W 123°53'3215.9
2016-Jul-22 05:33N 49°00' W 123°08'1111.4
2016-Jul-22 04:33N 49°04' W 123°25'1918.8
2016-Jul-22 03:33N 49°13' W 123°50'2 1.9
2016-Jul-22 02:33N 49°12' W 123°53'1919.3
2016-Jul-22 01:33N 49°06' W 123°25'1212.4
2016-Jul-22 00:33N 49°00' W 123°08'1312.8
2016-Jul-21 23:34N 49°04' W 123°26'1918.1
2016-Jul-21 22:32N 49°11' W 123°53'1 1.3
2016-Jul-21 21:33N 49°12' W 123°53'2020.3
2016-Jul-21 20:33N 49°05' W 123°23'1111.1
2016-Jul-21 19:33N 49°00' W 123°08'1312.3
2016-Jul-21 18:32N 49°04' W 123°26'1918.6
2016-Jul-21 17:30N 49°12' W 123°53'1 0.8
2016-Jul-21 16:33N 49°12' W 123°52'2119.8
2016-Jul-21 15:28N 49°05' W 123°22'10 8.1
2016-Jul-21 14:14N 49°00' W 123°08'1717.2
2016-Jul-21 13:15N 49°07' W 123°32'1418.2
2016-Jul-21 12:28N 49°13' W 123°51'1 0.2
2016-Jul-21 07:31N 49°13' W 123°50'2020.1
2016-Jul-21 06:32N 49°06' W 123°22'5 2.2
2016-Jul-21 04:27N 49°06' W 123°29'1718.8
2016-Jul-21 03:33N 49°11' W 123°53'3 2.8
2016-Jul-21 02:33N 49°13' W 123°50'2120.6
2016-Jul-21 01:33N 49°04' W 123°21'9 9.4
2016-Jul-21 00:33N 49°00' W 123°08'1212.3
2016-Jul-20 23:33N 49°04' W 123°26'1919.3
2016-Jul-20 22:33N 49°12' W 123°53'1 0.7
2016-Jul-20 21:33N 49°12' W 123°53'2019.5
2016-Jul-20 20:33N 49°05' W 123°25'1212.3
2016-Jul-20 19:33N 49°00' W 123°08'1313.0
2016-Jul-20 18:33N 49°04' W 123°27'1918.9
2016-Jul-20 17:33N 49°12' W 123°53'0 0.3
2016-Jul-20 16:33N 49°12' W 123°53'1919.4
2016-Jul-20 15:33N 49°06' W 123°25'1212.2
2016-Jul-20 14:33N 49°00' W 123°08'1111.3
2016-Jul-20 13:33N 49°03' W 123°24'1918.6
2016-Jul-20 12:33N 49°13' W 123°49'4 0.7
2016-Jul-20 07:33N 49°11' W 123°53'1818.1
2016-Jul-20 06:34N 49°06' W 123°27'1413.8
2016-Jul-20 05:34N 49°00' W 123°08'1313.0
2016-Jul-20 04:33N 49°05' W 123°27'1918.5
2016-Jul-20 03:33N 49°11' W 123°53'3 2.6
2016-Jul-20 02:33N 49°13' W 123°50'1919.2
2016-Jul-20 01:34N 49°06' W 123°23'1111.3
2016-Jul-20 00:33N 49°00' W 123°08'1212.2
2016-Jul-19 23:33N 49°04' W 123°26'1919.0
2016-Jul-19 22:33N 49°12' W 123°52'1 1.4
2016-Jul-19 21:33N 49°12' W 123°53'2019.7
2016-Jul-19 20:33N 49°05' W 123°25'1211.5
2016-Jul-19 19:31N 49°00' W 123°08'1313.5
2016-Jul-19 18:33N 49°04' W 123°27'1918.6
2016-Jul-19 17:33N 49°12' W 123°52'0 0.3
2016-Jul-19 16:33N 49°13' W 123°52'1818.4
2016-Jul-19 15:33N 49°06' W 123°26'1312.7
2016-Jul-19 14:33N 49°00' W 123°08'1111.4
2016-Jul-19 13:33N 49°04' W 123°24'1918.7
2016-Jul-19 12:34N 49°13' W 123°49'4 0.8
2016-Jul-19 07:27N 49°10' W 123°53'22 7.7
2016-Jul-19 04:33N 49°02' W 123°22'2020.3
2016-Jul-19 03:33N 49°13' W 123°48'4 3.7
2016-Jul-19 02:33N 49°12' W 123°53'1918.9
2016-Jul-19 01:33N 49°07' W 123°25'1313.2
2016-Jul-19 00:33N 49°00' W 123°08'1111.2
2016-Jul-18 23:33N 49°03' W 123°24'2019.6
2016-Jul-18 22:33N 49°13' W 123°51'2 2.0
2016-Jul-18 21:33N 49°12' W 123°53'1919.2
2016-Jul-18 20:33N 49°06' W 123°25'1312.8
2016-Jul-18 19:34N 49°00' W 123°08'1111.0
2016-Jul-18 18:33N 49°03' W 123°24'2019.9
2016-Jul-18 17:33N 49°13' W 123°51'2 2.0
2016-Jul-18 16:34N 49°12' W 123°53'1818.4
2016-Jul-18 15:34N 49°06' W 123°26'1313.4
2016-Jul-18 14:34N 49°00' W 123°08'1111.5
2016-Jul-18 13:33N 49°03' W 123°25'1919.1
2016-Jul-18 12:33N 49°13' W 123°50'4 0.8
2016-Jul-18 08:07N 49°10' W 123°53'0 0.7
2016-Jul-18 07:33N 49°10' W 123°53'1716.7
2016-Jul-18 06:33N 49°07' W 123°28'1515.0
2016-Jul-18 05:33N 49°00' W 123°08'1211.7
2016-Jul-18 04:34N 49°04' W 123°25'2019.6
2016-Jul-18 03:33N 49°12' W 123°52'0 0.5
2016-Jul-18 02:33N 49°12' W 123°53'1919.4
2016-Jul-18 01:34N 49°06' W 123°25'1312.5
2016-Jul-18 00:34N 49°00' W 123°08'1212.1
2016-Jul-17 23:33N 49°04' W 123°26'1919.4
2016-Jul-17 22:33N 49°12' W 123°52'1 0.8
2016-Jul-17 21:33N 49°12' W 123°53'1919.4
2016-Jul-17 20:33N 49°06' W 123°25'1212.5
2016-Jul-17 19:33N 49°00' W 123°08'1110.8
2016-Jul-17 18:33N 49°03' W 123°24'2019.5
2016-Jul-17 17:33N 49°13' W 123°50'3 3.1
2016-Jul-17 16:32N 49°11' W 123°53'1817.6
2016-Jul-17 15:31N 49°07' W 123°27'1414.3
2016-Jul-17 14:33N 49°00' W 123°08'1110.7
2016-Jul-17 13:33N 49°03' W 123°24'1919.3
2016-Jul-17 12:33N 49°13' W 123°49'4 0.7
2016-Jul-17 07:29N 49°11' W 123°53'1718.1
2016-Jul-17 06:33N 49°07' W 123°29'5 2.7
2016-Jul-17 04:33N 49°03' W 123°23'1919.4
2016-Jul-17 03:33N 49°13' W 123°48'2 2.4
2016-Jul-17 02:33N 49°13' W 123°52'2019.8
2016-Jul-17 01:33N 49°05' W 123°23'1111.3
2016-Jul-17 00:33N 49°00' W 123°08'1413.6
2016-Jul-16 23:33N 49°05' W 123°27'1817.9
2016-Jul-16 22:33N 49°11' W 123°53'3 3.5
2016-Jul-16 21:33N 49°13' W 123°49'2020.2
2016-Jul-16 20:33N 49°04' W 123°21'9 9.5
2016-Jul-16 19:33N 49°00' W 123°08'1313.4
2016-Jul-16 18:33N 49°05' W 123°27'1818.1
2016-Jul-16 17:33N 49°11' W 123°53'3 2.9
2016-Jul-16 16:33N 49°13' W 123°50'1919.2
2016-Jul-16 15:33N 49°05' W 123°23'1111.3
2016-Jul-16 14:34N 49°00' W 123°08'1111.1
2016-Jul-16 13:33N 49°03' W 123°24'1919.2
2016-Jul-16 12:33N 49°13' W 123°50'4 3.9
2016-Jul-16 11:28N 49°10' W 123°53'0 0.0
2016-Jul-16 10:25N 49°10' W 123°53'0 0.0
2016-Jul-16 09:33N 49°10' W 123°53'0 0.0
2016-Jul-16 08:33N 49°10' W 123°53'5 5.3
2016-Jul-16 07:33N 49°13' W 123°47'2020.2
2016-Jul-16 06:34N 49°03' W 123°20'10 5.1
2016-Jul-16 04:33N 49°08' W 123°34'1312.9
2016-Jul-16 03:33N 49°10' W 123°53'7 7.3
2016-Jul-16 02:33N 49°12' W 123°43'2019.6
2016-Jul-16 01:33N 49°02' W 123°18'6 6.5
2016-Jul-16 00:34N 49°00' W 123°08'1717.1
2016-Jul-15 23:33N 49°07' W 123°32'1414.2
2016-Jul-15 22:33N 49°10' W 123°53'5 4.9
2016-Jul-15 21:33N 49°13' W 123°48'2020.1
2016-Jul-15 20:33N 49°04' W 123°21'9 9.1
2016-Jul-15 19:33N 49°00' W 123°08'1514.6
2016-Jul-15 18:33N 49°06' W 123°29'  

Dump ship's entire track history